Observations for SHOREHAM-BY-SEA, United Kingdom (EGKA)

EGKA 241550Z 05015KT CAVOK 05/M05 Q1020 
EGKA 241520Z 06014KT CAVOK 06/M05 Q1020 
EGKA 241450Z 06013KT CAVOK 06/M03 Q1020 
EGKA 241420Z 05013KT CAVOK 06/M03 Q1020 
EGKA 241350Z 05014KT CAVOK 06/M03 Q1020 
EGKA 241320Z 03012KT CAVOK 06/M02 Q1020 
EGKA 241250Z 04015KT CAVOK 05/M03 Q1020 
EGKA 241220Z 03016KT CAVOK 05/M03 Q1020 
EGKA 241150Z 03014KT 9000 NSC 04/M03 Q1020  
EGKA 241120Z 03014KT 9000 NSC 04/M03 Q1020  
EGKA 241050Z 04013KT 9000 NSC 03/M03 Q1020  
EGKA 241020Z 05014KT CAVOK 02/M03 Q1020 
EGKA 240950Z 05011KT CAVOK 02/M03 Q1020 
EGKA 240920Z 06012KT 9000 NSC 01/M03 Q1020  
EGKA 240850Z 05010KT 9000 NSC 01/M03 Q1020  
EGKA 231950Z 04003KT CAVOK 00/M03 Q1018 
EGKA 231920Z 04003KT CAVOK 00/M03 Q1018 
EGKA 231850Z 05009KT 9999 FEW040 01/M03 Q1018   
EGKA 231820Z 05009KT 9999 FEW035 01/M03 Q1018   
EGKA 231750Z 05008KT 9999 FEW035 01/M04 Q1018   
EGKA 231720Z 04010KT 9999 FEW035 02/M03 Q1018   
EGKA 231650Z 05010KT 9999 FEW035 03/M03 Q1018   
EGKA 231620Z 07013KT 9999 FEW035 04/M03 Q1018   
EGKA 231550Z 04015KT 9999 FEW035 04/M03 Q1018   
EGKA 231520Z 04015KT 9999 FEW035 04/M03 Q1018   
EGKA 231450Z 06014KT 9999 FEW035 05/M03 Q1019